GMTT/TNG METAR and TAF weather

Enter ICAO airport designator
Station Type Date Time Source
GMTT METAR 2021/05/14 22:00 UTC NOAA

GMTT 142200Z 31004KT 280V340 7000 NSC 17/14 Q1017 NOSIG


Station Type Date Time Source
GMTT Decoded METAR 2021/05/14 22:00 UTC NOAA

Tanger Aerodrome , Morocco (GMTT) 35-44N 005-54W 21M
May 14, 2021 - 06:00 PM EDT / 2021.05.14 2200 UTC
Wind: from the NW (310 degrees) at 5 MPH (4 KT) (direction variable):0
Visibility: 4 mile(s):0
Temperature: 62 F (17 C)
Dew Point: 57 F (14 C)
Relative Humidity: 82%
Pressure (altimeter): 30.03 in. Hg (1017 hPa)
ob: GMTT 142200Z 31004KT 280V340 7000 NSC 17/14 Q1017 NOSIG
cycle: 22

Station Type Date Time Source
GMTT TAF 2021/05/14 18:18 UTC NOAA

TAF GMTT 141700Z 1418/1524 28008KT CAVOK
BECMG 1503/1506 06015KT

Example: see airport list